Time;durP1;ratioP1;P1;durP2;ratioP2;P2;SDS_P1;SDS_P2;PMS_P1;PMS_P2;Temp;Humidity;BMP_temperature;BMP_pressure;BME280_temperature;BME280_humidity;BME280_pressure;Samples;Min_cycle;Max_cycle;Signal;HPM_P1;HPM_P2
2023/12/08 00:00:37;;;;;;;;;12.00;12.00;;;;;;;;5049485;28;11375;-81
2023/12/08 00:03:04;;;;;;;;;16.75;12.50;;;;;;;;5051533;28;11476;-81
2023/12/08 00:05:31;;;;;;;;;11.50;10.00;;;;;;;;5051045;28;11474;-81
2023/12/08 00:08:01;;;;;;;;;12.00;11.75;;;;;;;;5061449;28;11412;-80
2023/12/08 00:10:30;;;;;;;;;10.00;10.00;;;;;;;;5073646;28;11434;-80
2023/12/08 00:12:59;;;;;;;;;12.00;12.00;;;;;;;;5075325;28;11473;-81
2023/12/08 00:15:27;;;;;;;;;13.00;13.00;;;;;;;;5065737;28;11446;-80
2023/12/08 00:17:55;;;;;;;;;12.00;12.00;;;;;;;;5046422;28;11567;-80
2023/12/08 00:20:22;;;;;;;;;12.00;12.00;;;;;;;;5050600;28;12305;-80
2023/12/08 00:22:50;;;;;;;;;9.00;9.00;;;;;;;;5050335;28;11647;-80
2023/12/08 00:25:17;;;;;;;;;13.00;11.25;;;;;;;;5050360;28;11501;-80
2023/12/08 00:27:45;;;;;;;;;12.00;12.00;;;;;;;;5050240;28;11514;-80
2023/12/08 00:30:13;;;;;;;;;10.00;8.00;;;;;;;;5050235;28;11576;-80
2023/12/08 00:32:40;;;;;;;;;12.25;11.00;;;;;;;;5050017;28;11473;-80
2023/12/08 00:35:09;;;;;;;;;10.25;10.25;;;;;;;;5050994;28;11465;-79
2023/12/08 00:37:36;;;;;;;;;13.25;11.75;;;;;;;;5050332;28;11494;-81
2023/12/08 00:40:05;;;;;;;;;17.50;14.00;;;;;;;;5049247;28;11498;-80
2023/12/08 00:42:32;;;;;;;;;9.50;9.50;;;;;;;;5050686;28;11484;-80
2023/12/08 00:45:04;;;;;;;;;13.25;11.25;;;;;;;;5050800;28;11442;-81
2023/12/08 00:47:31;;;;;;;;;13.25;11.50;;;;;;;;5050715;28;11534;-80
2023/12/08 00:50:01;;;;;;;;;13.00;13.00;;;;;;;;5051864;28;11572;-80
2023/12/08 00:52:30;;;;;;;;;12.25;12.25;;;;;;;;5053417;28;11474;-80
2023/12/08 00:54:58;;;;;;;;;13.50;13.50;;;;;;;;5055028;28;11499;-80
2023/12/08 00:57:25;;;;;;;;;14.25;14.25;;;;;;;;5055310;28;11622;-80
2023/12/08 00:59:52;;;;;;;;;16.25;14.00;;;;;;;;5055822;28;11632;-80
2023/12/08 01:02:21;;;;;;;;;17.75;17.75;;;;;;;;5055401;28;11523;-80
2023/12/08 01:04:47;;;;;;;;;13.50;13.50;;;;;;;;5056124;28;11520;-80
2023/12/08 01:07:15;;;;;;;;;13.25;12.50;;;;;;;;5054966;28;11495;-80
2023/12/08 01:09:42;;;;;;;;;21.25;17.00;;;;;;;;5053486;28;11616;-80
2023/12/08 01:12:09;;;;;;;;;14.50;13.75;;;;;;;;5049754;28;11496;-80
2023/12/08 01:14:36;;;;;;;;;17.00;17.00;;;;;;;;5051659;28;11617;-80
2023/12/08 01:17:04;;;;;;;;;15.75;15.75;;;;;;;;5052822;28;11636;-79
2023/12/08 01:19:33;;;;;;;;;17.75;15.25;;;;;;;;5051865;28;12351;-80
2023/12/08 01:22:00;;;;;;;;;11.25;11.25;;;;;;;;5046715;28;11520;-81
2023/12/08 01:24:28;;;;;;;;;15.75;14.50;;;;;;;;5049485;28;11475;-80
2023/12/08 01:26:55;;;;;;;;;18.25;16.25;;;;;;;;5049214;28;11506;-80
2023/12/08 01:29:22;;;;;;;;;15.25;14.50;;;;;;;;5049341;28;11604;-80
2023/12/08 01:31:49;;;;;;;;;16.75;15.50;;;;;;;;5043728;28;11464;-80
2023/12/08 01:34:17;;;;;;;;;17.50;17.50;;;;;;;;5048917;28;11641;-80
2023/12/08 01:36:45;;;;;;;;;19.00;19.00;;;;;;;;5043454;28;11524;-80
2023/12/08 01:39:13;;;;;;;;;14.50;14.50;;;;;;;;5048634;28;11611;-80
2023/12/08 01:41:40;;;;;;;;;14.75;14.75;;;;;;;;5048809;28;11534;-81
2023/12/08 01:44:07;;;;;;;;;15.25;15.00;;;;;;;;5048113;28;11496;-80
2023/12/08 01:46:37;;;;;;;;;16.75;16.75;;;;;;;;5049102;28;11517;-80
2023/12/08 01:49:06;;;;;;;;;17.00;17.00;;;;;;;;5048827;28;12270;-80
2023/12/08 01:51:34;;;;;;;;;19.25;17.00;;;;;;;;5047844;28;12359;-80
2023/12/08 01:54:03;;;;;;;;;18.50;18.00;;;;;;;;5048970;28;11610;-80
2023/12/08 01:56:30;;;;;;;;;27.00;23.00;;;;;;;;5049171;28;11579;-80
2023/12/08 01:58:58;;;;;;;;;19.75;16.50;;;;;;;;5048519;28;12338;-79
2023/12/08 02:01:25;;;;;;;;;13.75;13.75;;;;;;;;5048951;28;11574;-80
2023/12/08 02:03:53;;;;;;;;;20.00;19.75;;;;;;;;5049889;28;11573;-80
2023/12/08 02:06:20;;;;;;;;;20.00;20.00;;;;;;;;5050456;28;11511;-80
2023/12/08 02:08:48;;;;;;;;;28.00;23.50;;;;;;;;5048006;28;11520;-80
2023/12/08 02:11:17;;;;;;;;;24.50;24.50;;;;;;;;5049487;28;12318;-79
2023/12/08 02:13:45;;;;;;;;;25.25;21.25;;;;;;;;5047933;28;11653;-80
2023/12/08 02:16:17;;;;;;;;;22.75;21.75;;;;;;;;5048882;28;11645;-80
2023/12/08 02:18:44;;;;;;;;;21.75;18.75;;;;;;;;5037918;28;11517;-80
2023/12/08 02:21:13;;;;;;;;;24.25;21.25;;;;;;;;5041135;28;11643;-80
2023/12/08 02:23:44;;;;;;;;;27.75;25.25;;;;;;;;5048646;28;11512;-80
2023/12/08 02:26:12;;;;;;;;;27.75;24.00;;;;;;;;5048565;28;11513;-80
2023/12/08 02:28:39;;;;;;;;;28.50;23.50;;;;;;;;5048373;28;11507;-80
2023/12/08 02:31:08;;;;;;;;;25.00;24.75;;;;;;;;5048080;28;11548;-80
2023/12/08 02:33:37;;;;;;;;;20.75;20.75;;;;;;;;5048964;28;11656;-80
2023/12/08 02:36:06;;;;;;;;;25.25;21.50;;;;;;;;5048783;28;11559;-79
2023/12/08 02:38:34;;;;;;;;;28.00;24.00;;;;;;;;5044607;28;12311;-80
2023/12/08 02:41:03;;;;;;;;;20.50;19.00;;;;;;;;5043668;28;11501;-80
2023/12/08 02:43:31;;;;;;;;;19.50;17.00;;;;;;;;5050500;28;11514;-80
2023/12/08 02:45:58;;;;;;;;;25.25;20.75;;;;;;;;5053507;28;11491;-79
2023/12/08 02:48:26;;;;;;;;;22.00;19.75;;;;;;;;5053880;28;11517;-78
2023/12/08 02:50:53;;;;;;;;;20.00;17.50;;;;;;;;5048133;28;11635;-80
2023/12/08 02:53:20;;;;;;;;;23.75;18.75;;;;;;;;5049856;28;11189;-79
2023/12/08 02:55:47;;;;;;;;;22.75;20.25;;;;;;;;5053424;28;11498;-79
2023/12/08 02:58:16;;;;;;;;;18.00;15.25;;;;;;;;5051433;28;11596;-78
2023/12/08 03:00:43;;;;;;;;;26.75;22.25;;;;;;;;5049042;28;11406;-79
2023/12/08 03:03:11;;;;;;;;;21.50;20.25;;;;;;;;5049590;28;11361;-78
2023/12/08 03:05:38;;;;;;;;;20.00;20.00;;;;;;;;5051765;28;12099;-79
2023/12/08 03:08:05;;;;;;;;;16.75;15.50;;;;;;;;5050985;28;12212;-80
2023/12/08 03:10:33;;;;;;;;;21.25;19.75;;;;;;;;5047858;28;11115;-80
2023/12/08 03:13:01;;;;;;;;;18.75;18.00;;;;;;;;5046719;28;11516;-80
2023/12/08 03:15:31;;;;;;;;;14.25;13.75;;;;;;;;5047453;28;11358;-79
2023/12/08 03:17:59;;;;;;;;;22.25;21.50;;;;;;;;5048244;28;11161;-79
2023/12/08 03:20:26;;;;;;;;;20.00;19.00;;;;;;;;5043673;28;11276;-78
2023/12/08 03:22:53;;;;;;;;;23.75;19.00;;;;;;;;5041594;28;11287;-79
2023/12/08 03:25:21;;;;;;;;;15.50;14.25;;;;;;;;5047800;28;11214;-79
2023/12/08 03:27:48;;;;;;;;;17.50;16.00;;;;;;;;5047558;28;11214;-79
2023/12/08 03:30:15;;;;;;;;;17.75;13.00;;;;;;;;5047085;28;11537;-79
2023/12/08 03:32:46;;;;;;;;;23.50;20.50;;;;;;;;5079223;28;11184;-79
2023/12/08 03:35:13;;;;;;;;;16.50;16.50;;;;;;;;5036425;28;11202;-80
2023/12/08 03:37:40;;;;;;;;;25.25;21.00;;;;;;;;5047641;28;11487;-80
2023/12/08 03:40:09;;;;;;;;;25.25;21.00;;;;;;;;5047621;28;11531;-80
2023/12/08 03:42:37;;;;;;;;;21.50;21.50;;;;;;;;5047007;28;11488;-80
2023/12/08 03:45:06;;;;;;;;;22.25;18.25;;;;;;;;5047574;28;11636;-80
2023/12/08 03:47:34;;;;;;;;;21.00;21.00;;;;;;;;5046541;28;11403;-80
2023/12/08 03:50:02;;;;;;;;;19.50;17.00;;;;;;;;5047653;28;11255;-80
2023/12/08 03:52:30;;;;;;;;;23.50;18.75;;;;;;;;5047445;28;11127;-79
2023/12/08 03:54:57;;;;;;;;;19.25;17.50;;;;;;;;5047463;28;11069;-80
2023/12/08 03:57:24;;;;;;;;;18.00;16.00;;;;;;;;5047386;28;11158;-80
2023/12/08 03:59:52;;;;;;;;;14.00;11.75;;;;;;;;5047711;28;11085;-80
2023/12/08 04:02:19;;;;;;;;;15.25;14.25;;;;;;;;5046802;28;10922;-79
2023/12/08 04:04:47;;;;;;;;;17.00;15.00;;;;;;;;5047583;28;10962;-80
2023/12/08 04:07:15;;;;;;;;;15.75;14.50;;;;;;;;5050200;28;10876;-80
2023/12/08 04:09:43;;;;;;;;;17.25;15.50;;;;;;;;5052409;28;10903;-79
2023/12/08 04:12:10;;;;;;;;;18.25;17.50;;;;;;;;5053546;28;11640;-80
2023/12/08 04:14:37;;;;;;;;;18.00;15.75;;;;;;;;5051436;28;10898;-80
2023/12/08 04:17:05;;;;;;;;;26.50;23.00;;;;;;;;5051377;28;11658;-80
2023/12/08 04:19:33;;;;;;;;;11.25;9.50;;;;;;;;5051337;28;11048;-80
2023/12/08 04:22:01;;;;;;;;;16.00;16.00;;;;;;;;5041151;28;10886;-80
2023/12/08 04:24:30;;;;;;;;;18.75;16.25;;;;;;;;5051684;28;11065;-80
2023/12/08 04:26:57;;;;;;;;;19.75;19.00;;;;;;;;5050825;28;10878;-80
2023/12/08 04:29:27;;;;;;;;;20.50;18.00;;;;;;;;5051855;28;11077;-80
2023/12/08 04:31:54;;;;;;;;;23.50;21.50;;;;;;;;5052619;28;10958;-79
2023/12/08 04:34:21;;;;;;;;;21.00;19.25;;;;;;;;5055325;28;11028;-80
2023/12/08 04:36:48;;;;;;;;;17.00;17.00;;;;;;;;5055505;28;11053;-80
2023/12/08 04:39:16;;;;;;;;;20.75;19.25;;;;;;;;5055775;28;10923;-81
2023/12/08 04:41:44;;;;;;;;;20.00;19.25;;;;;;;;5055647;28;11324;-81
2023/12/08 04:44:12;;;;;;;;;17.00;15.25;;;;;;;;5055766;28;10972;-80
2023/12/08 04:46:39;;;;;;;;;17.00;17.00;;;;;;;;5054326;28;10911;-78
2023/12/08 04:49:07;;;;;;;;;16.50;16.00;;;;;;;;5051307;28;11661;-81
2023/12/08 04:51:35;;;;;;;;;20.50;18.00;;;;;;;;5051611;28;10733;-80
2023/12/08 04:54:02;;;;;;;;;22.00;19.50;;;;;;;;5051731;28;11012;-80
2023/12/08 04:56:38;;;;;;;;;21.75;20.50;;;;;;;;5052841;28;11179;-80
2023/12/08 04:59:09;;;;;;;;;25.50;20.75;;;;;;;;5051347;28;11134;-80
2023/12/08 05:01:38;;;;;;;;;20.75;20.00;;;;;;;;5041126;28;11104;-80
2023/12/08 05:04:08;;;;;;;;;21.50;17.25;;;;;;;;5049653;28;11175;-79
2023/12/08 05:06:36;;;;;;;;;22.00;20.50;;;;;;;;5055903;28;11127;-81
2023/12/08 05:09:04;;;;;;;;;26.25;21.75;;;;;;;;5048888;28;11115;-79
2023/12/08 05:11:31;;;;;;;;;23.00;20.75;;;;;;;;5049327;28;11154;-80
2023/12/08 05:13:58;;;;;;;;;20.75;19.50;;;;;;;;5049155;28;11164;-80
2023/12/08 05:16:27;;;;;;;;;22.75;22.75;;;;;;;;5050067;28;11246;-80
2023/12/08 05:18:54;;;;;;;;;22.75;21.50;;;;;;;;5042991;28;11052;-81
2023/12/08 05:21:21;;;;;;;;;19.25;18.50;;;;;;;;5033651;28;11055;-81
2023/12/08 05:23:48;;;;;;;;;17.00;14.50;;;;;;;;5048596;28;11147;-82
2023/12/08 05:26:16;;;;;;;;;20.00;15.50;;;;;;;;5048959;28;10961;-81
2023/12/08 05:28:43;;;;;;;;;24.00;18.25;;;;;;;;5048340;28;10901;-81
2023/12/08 05:31:10;;;;;;;;;14.75;13.25;;;;;;;;5047152;28;11089;-82
2023/12/08 05:33:39;;;;;;;;;27.75;25.25;;;;;;;;5048651;28;11034;-81
2023/12/08 05:36:07;;;;;;;;;14.50;14.25;;;;;;;;5048574;28;11856;-82
2023/12/08 05:38:34;;;;;;;;;18.00;14.25;;;;;;;;5049164;28;10874;-80
2023/12/08 05:41:03;;;;;;;;;15.00;14.50;;;;;;;;5048217;28;10814;-80
2023/12/08 05:43:34;;;;;;;;;16.25;13.75;;;;;;;;5049340;28;10918;-81
2023/12/08 05:46:02;;;;;;;;;13.25;11.25;;;;;;;;5047288;28;11049;-80
2023/12/08 05:48:32;;;;;;;;;13.75;12.00;;;;;;;;5049011;28;10888;-82
2023/12/08 05:51:03;;;;;;;;;20.50;15.00;;;;;;;;5048242;28;10765;-81
2023/12/08 05:53:33;;;;;;;;;15.75;12.25;;;;;;;;5049053;28;10830;-80
2023/12/08 05:56:00;;;;;;;;;10.75;10.75;;;;;;;;5035993;28;10711;-82
2023/12/08 05:58:28;;;;;;;;;9.50;9.50;;;;;;;;5048792;28;10824;-82
2023/12/08 06:00:56;;;;;;;;;9.25;9.25;;;;;;;;5048272;28;10650;-81
2023/12/08 06:03:25;;;;;;;;;17.75;10.50;;;;;;;;5048863;28;10727;-82
2023/12/08 06:05:54;;;;;;;;;15.25;10.50;;;;;;;;5037281;28;10766;-83
2023/12/08 06:08:25;;;;;;;;;20.25;10.75;;;;;;;;5048470;28;10928;-83
2023/12/08 06:10:53;;;;;;;;;12.25;10.50;;;;;;;;5048977;28;10819;-85
2023/12/08 06:13:20;;;;;;;;;14.25;11.25;;;;;;;;5047047;28;10812;-76
2023/12/08 06:15:47;;;;;;;;;15.75;13.50;;;;;;;;5048860;28;10627;-81
2023/12/08 06:18:14;;;;;;;;;18.00;15.75;;;;;;;;5049404;28;10822;-82
2023/12/08 06:20:41;;;;;;;;;24.50;19.25;;;;;;;;5044791;28;10841;-78
2023/12/08 06:23:11;;;;;;;;;20.75;20.50;;;;;;;;5046870;28;10960;-72
2023/12/08 06:25:45;;;;;;;;;22.00;17.50;;;;;;;;5043252;28;11095;-79
2023/12/08 06:28:13;;;;;;;;;19.00;16.50;;;;;;;;5053480;28;10911;-79
2023/12/08 06:30:40;;;;;;;;;20.75;17.50;;;;;;;;5053461;28;10882;-76
2023/12/08 06:33:07;;;;;;;;;23.75;22.00;;;;;;;;5052111;28;11112;-80
2023/12/08 06:35:34;;;;;;;;;20.25;20.25;;;;;;;;5053995;28;11044;-83
2023/12/08 06:38:02;;;;;;;;;26.25;20.00;;;;;;;;5041145;28;11676;-73
2023/12/08 06:40:32;;;;;;;;;15.75;14.50;;;;;;;;5049912;28;10934;-78
2023/12/08 06:43:03;;;;;;;;;18.00;14.00;;;;;;;;5047638;28;11352;-76
2023/12/08 06:45:34;;;;;;;;;16.75;14.75;;;;;;;;5051202;28;10878;-76
2023/12/08 06:48:01;;;;;;;;;16.50;16.50;;;;;;;;5048643;28;10746;-74
2023/12/08 06:50:32;;;;;;;;;22.75;15.25;;;;;;;;5050225;28;10947;-77
2023/12/08 06:53:00;;;;;;;;;16.00;15.00;;;;;;;;5048026;28;10808;-79
2023/12/08 06:55:30;;;;;;;;;19.50;15.00;;;;;;;;5047807;28;10800;-74
2023/12/08 06:58:00;;;;;;;;;19.75;17.50;;;;;;;;5045851;28;10755;-74
2023/12/08 07:00:31;;;;;;;;;18.00;16.33;;;;;;;;5047396;28;10892;-72
2023/12/08 07:02:58;;;;;;;;;18.00;16.50;;;;;;;;5044957;28;10855;-76
2023/12/08 07:05:25;;;;;;;;;17.25;16.25;;;;;;;;5047453;28;10809;-73
2023/12/08 07:07:52;;;;;;;;;16.50;12.00;;;;;;;;5045607;28;10809;-73
2023/12/08 07:10:19;;;;;;;;;16.25;14.50;;;;;;;;5044827;28;10869;-73
2023/12/08 07:12:46;;;;;;;;;15.50;13.00;;;;;;;;5045244;28;10670;-72
2023/12/08 07:15:14;;;;;;;;;17.25;11.75;;;;;;;;5045271;28;10687;-73
2023/12/08 07:17:42;;;;;;;;;16.25;14.50;;;;;;;;5047623;28;11564;-74
2023/12/08 07:20:12;;;;;;;;;10.00;9.75;;;;;;;;5046067;28;10881;-74
2023/12/08 07:22:40;;;;;;;;;14.75;14.75;;;;;;;;5046721;28;10631;-70
2023/12/08 07:25:11;;;;;;;;;17.00;15.75;;;;;;;;5048518;28;10891;-73
2023/12/08 07:27:38;;;;;;;;;18.00;15.00;;;;;;;;5040118;28;10887;-73
2023/12/08 07:30:06;;;;;;;;;17.50;17.00;;;;;;;;5047670;28;11008;-73
2023/12/08 07:32:34;;;;;;;;;13.50;13.50;;;;;;;;5047267;28;10994;-73
2023/12/08 07:35:02;;;;;;;;;12.75;12.25;;;;;;;;5047232;28;10741;-78
2023/12/08 07:37:31;;;;;;;;;17.25;17.25;;;;;;;;5046608;28;10794;-73
2023/12/08 07:39:58;;;;;;;;;18.75;16.00;;;;;;;;5047380;28;10978;-77
2023/12/08 07:42:26;;;;;;;;;12.00;12.00;;;;;;;;5050417;28;10957;-77
2023/12/08 07:44:53;;;;;;;;;15.25;13.25;;;;;;;;5051066;28;10751;-81
2023/12/08 07:47:20;;;;;;;;;18.25;15.50;;;;;;;;5036875;28;10668;-78
2023/12/08 07:49:47;;;;;;;;;24.00;17.50;;;;;;;;5050869;28;10822;-74
2023/12/08 07:52:17;;;;;;;;;18.25;14.75;;;;;;;;5050910;28;10764;-78
2023/12/08 07:54:44;;;;;;;;;17.25;15.50;;;;;;;;5051010;28;10705;-76
2023/12/08 07:57:11;;;;;;;;;19.25;17.75;;;;;;;;5050480;28;10715;-77
2023/12/08 07:59:38;;;;;;;;;19.00;17.00;;;;;;;;5040176;28;10806;-78
2023/12/08 08:02:06;;;;;;;;;16.25;16.25;;;;;;;;5049943;28;10803;-77
2023/12/08 08:04:33;;;;;;;;;18.25;14.25;;;;;;;;5051069;28;10700;-79
2023/12/08 08:07:00;;;;;;;;;18.50;16.25;;;;;;;;5050552;28;11412;-77
2023/12/08 08:09:29;;;;;;;;;17.25;13.00;;;;;;;;5052023;28;10682;-75
2023/12/08 08:11:56;;;;;;;;;18.75;14.25;;;;;;;;5052549;28;10808;-79
2023/12/08 08:14:24;;;;;;;;;15.00;12.75;;;;;;;;5053597;28;10654;-75
2023/12/08 08:16:51;;;;;;;;;16.75;12.75;;;;;;;;5053751;28;10837;-76
2023/12/08 08:19:18;;;;;;;;;17.00;13.50;;;;;;;;5054965;28;10741;-79
2023/12/08 08:21:45;;;;;;;;;14.25;11.50;;;;;;;;5048872;28;10626;-79
2023/12/08 08:24:13;;;;;;;;;17.75;14.00;;;;;;;;5054440;28;10605;-79
2023/12/08 08:26:45;;;;;;;;;12.75;11.00;;;;;;;;5053709;28;10728;-74
2023/12/08 08:29:12;;;;;;;;;21.50;17.00;;;;;;;;5050960;28;10753;-78
2023/12/08 08:31:39;;;;;;;;;13.00;10.25;;;;;;;;5050851;28;10678;-73
2023/12/08 08:34:06;;;;;;;;;16.50;11.25;;;;;;;;5045850;28;10837;-76
2023/12/08 08:36:34;;;;;;;;;13.50;10.75;;;;;;;;5051647;28;10727;-76
2023/12/08 08:39:04;;;;;;;;;15.50;14.25;;;;;;;;5050509;28;10871;-78
2023/12/08 08:41:31;;;;;;;;;16.25;16.25;;;;;;;;5047126;28;10723;-76
2023/12/08 08:44:00;;;;;;;;;18.25;15.00;;;;;;;;5043096;28;10849;-77
2023/12/08 08:46:29;;;;;;;;;15.25;12.25;;;;;;;;5048584;28;10663;-77
2023/12/08 08:48:59;;;;;;;;;24.00;18.00;;;;;;;;5049358;28;10670;-72
2023/12/08 08:51:27;;;;;;;;;12.75;10.75;;;;;;;;5046559;28;10583;-73
2023/12/08 08:53:54;;;;;;;;;18.25;17.75;;;;;;;;5049066;28;10550;-78
2023/12/08 08:56:22;;;;;;;;;18.25;14.00;;;;;;;;5049058;28;10776;-77
2023/12/08 08:58:49;;;;;;;;;11.50;10.50;;;;;;;;5049463;28;10734;-76
2023/12/08 09:01:18;;;;;;;;;9.75;8.75;;;;;;;;5048392;28;11414;-77
2023/12/08 09:03:45;;;;;;;;;14.25;12.50;;;;;;;;5048884;28;10640;-75
2023/12/08 09:06:12;;;;;;;;;16.50;12.50;;;;;;;;5048747;28;10641;-76
2023/12/08 09:08:41;;;;;;;;;14.25;13.25;;;;;;;;5049290;28;10721;-73
2023/12/08 09:11:08;;;;;;;;;20.00;17.50;;;;;;;;5049511;28;10630;-79
2023/12/08 09:13:36;;;;;;;;;13.75;13.25;;;;;;;;5049389;28;11527;-79
2023/12/08 09:16:04;;;;;;;;;11.75;10.00;;;;;;;;5048660;28;10867;-80
2023/12/08 09:18:32;;;;;;;;;11.75;11.75;;;;;;;;5049273;28;10760;-75
2023/12/08 09:20:59;;;;;;;;;16.25;15.25;;;;;;;;5044046;28;10553;-75
2023/12/08 09:23:27;;;;;;;;;13.25;11.50;;;;;;;;5050158;28;10571;-75
2023/12/08 09:25:54;;;;;;;;;20.25;17.75;;;;;;;;5050352;28;11241;-74
2023/12/08 09:28:22;;;;;;;;;16.75;15.00;;;;;;;;5049985;28;10811;-77
2023/12/08 09:30:49;;;;;;;;;18.25;14.00;;;;;;;;5048663;28;10525;-77
2023/12/08 09:33:16;;;;;;;;;17.50;14.50;;;;;;;;5049632;28;10522;-77
2023/12/08 09:35:47;;;;;;;;;14.25;14.25;;;;;;;;5049944;28;10536;-73
2023/12/08 09:38:14;;;;;;;;;17.00;15.25;;;;;;;;5048888;28;10510;-78
2023/12/08 09:40:43;;;;;;;;;16.50;12.50;;;;;;;;5048662;28;10664;-78
2023/12/08 09:43:15;;;;;;;;;11.50;10.00;;;;;;;;5048010;28;10504;-79
2023/12/08 09:45:44;;;;;;;;;17.50;14.50;;;;;;;;5041482;28;10681;-77
2023/12/08 09:48:14;;;;;;;;;15.75;13.00;;;;;;;;5047926;28;10535;-74
2023/12/08 09:50:45;;;;;;;;;17.75;13.75;;;;;;;;5048109;28;11316;-77
2023/12/08 09:53:13;;;;;;;;;14.00;12.50;;;;;;;;5048644;28;10589;-78
2023/12/08 09:55:40;;;;;;;;;18.50;12.50;;;;;;;;5048955;28;11158;-77
2023/12/08 09:58:08;;;;;;;;;17.50;13.75;;;;;;;;5049806;28;10719;-76
2023/12/08 10:00:35;;;;;;;;;15.25;11.50;;;;;;;;5050325;28;10503;-80
2023/12/08 10:03:02;;;;;;;;;17.25;14.25;;;;;;;;5051639;28;10414;-79
2023/12/08 10:05:30;;;;;;;;;13.50;12.00;;;;;;;;5047936;28;10322;-73
2023/12/08 10:08:00;;;;;;;;;12.00;11.75;;;;;;;;5051027;28;10259;-77
2023/12/08 10:10:29;;;;;;;;;19.50;15.25;;;;;;;;5053261;28;10357;-80
2023/12/08 10:12:57;;;;;;;;;14.00;14.00;;;;;;;;5051952;28;10260;-77
2023/12/08 10:15:26;;;;;;;;;12.50;11.50;;;;;;;;5052230;28;10326;-79
2023/12/08 10:17:53;;;;;;;;;9.50;9.50;;;;;;;;5052061;28;11205;-77
2023/12/08 10:20:22;;;;;;;;;15.25;14.00;;;;;;;;5049130;28;11130;-75
2023/12/08 10:22:50;;;;;;;;;17.50;13.25;;;;;;;;5049472;28;10241;-76
2023/12/08 10:25:19;;;;;;;;;11.50;9.50;;;;;;;;5050159;28;10957;-80
2023/12/08 10:27:47;;;;;;;;;19.50;13.75;;;;;;;;5049814;28;10430;-79
2023/12/08 10:30:15;;;;;;;;;11.25;9.00;;;;;;;;5039801;28;10341;-78
2023/12/08 10:32:44;;;;;;;;;16.25;11.00;;;;;;;;5047449;28;10681;-77
2023/12/08 10:35:12;;;;;;;;;11.75;9.75;;;;;;;;5040223;28;10205;-76
2023/12/08 10:37:41;;;;;;;;;11.75;8.75;;;;;;;;5046088;28;10319;-78
2023/12/08 10:40:09;;;;;;;;;11.25;11.00;;;;;;;;5047390;28;11160;-77
2023/12/08 10:42:38;;;;;;;;;19.50;10.50;;;;;;;;5046935;28;11013;-78
2023/12/08 10:45:10;;;;;;;;;14.50;11.25;;;;;;;;5047654;28;10221;-79
2023/12/08 10:47:39;;;;;;;;;12.00;8.75;;;;;;;;5046108;28;10276;-79
2023/12/08 10:50:08;;;;;;;;;17.25;13.00;;;;;;;;5047271;28;10211;-77
2023/12/08 10:52:37;;;;;;;;;12.00;10.25;;;;;;;;5046812;28;10282;-79
2023/12/08 10:55:05;;;;;;;;;13.00;10.25;;;;;;;;5047507;28;10120;-77
2023/12/08 10:57:36;;;;;;;;;10.25;6.00;;;;;;;;5046760;28;10264;-78
2023/12/08 11:00:12;;;;;;;;;13.00;8.25;;;;;;;;5047234;28;10800;-76
2023/12/08 11:02:43;;;;;;;;;11.25;10.50;;;;;;;;5047274;28;10004;-75
2023/12/08 11:05:15;;;;;;;;;12.50;9.25;;;;;;;;5047190;28;10085;-79
2023/12/08 11:07:46;;;;;;;;;15.50;11.00;;;;;;;;5036602;28;10247;-75
2023/12/08 11:10:14;;;;;;;;;16.00;13.75;;;;;;;;5047760;28;10249;-75
2023/12/08 11:12:46;;;;;;;;;12.00;11.00;;;;;;;;5049077;28;10297;-75
2023/12/08 11:15:17;;;;;;;;;10.75;10.75;;;;;;;;5050116;28;10210;-73
2023/12/08 11:17:50;;;;;;;;;17.00;11.75;;;;;;;;5052118;28;10108;-79
2023/12/08 11:20:18;;;;;;;;;14.25;12.25;;;;;;;;5050992;28;10111;-78
2023/12/08 11:22:47;;;;;;;;;6.75;6.75;;;;;;;;5051668;28;10121;-75
2023/12/08 11:25:21;;;;;;;;;11.75;10.00;;;;;;;;5052318;28;10053;-74
2023/12/08 11:27:51;;;;;;;;;14.00;12.00;;;;;;;;5051914;28;9950;-79
2023/12/08 11:30:26;;;;;;;;;8.00;8.00;;;;;;;;5045819;28;10166;-80
2023/12/08 11:33:06;;;;;;;;;10.75;9.00;;;;;;;;5077033;28;9848;-78
2023/12/08 11:35:33;;;;;;;;;10.25;9.00;;;;;;;;5054541;28;9924;-76
2023/12/08 11:38:04;;;;;;;;;12.00;9.50;;;;;;;;5050991;28;10934;-79
2023/12/08 11:40:31;;;;;;;;;13.75;7.00;;;;;;;;5051804;28;9852;-76
2023/12/08 11:43:01;;;;;;;;;12.75;7.00;;;;;;;;5051292;28;9784;-78
2023/12/08 11:45:30;;;;;;;;;11.50;9.75;;;;;;;;5052534;28;9742;-76
2023/12/08 11:47:58;;;;;;;;;9.50;8.75;;;;;;;;5051989;28;10476;-76
2023/12/08 11:50:26;;;;;;;;;8.75;5.25;;;;;;;;5054753;28;9887;-75
2023/12/08 11:52:55;;;;;;;;;9.75;5.75;;;;;;;;5055208;28;9889;-74
2023/12/08 11:55:24;;;;;;;;;9.75;6.50;;;;;;;;5047940;28;9858;-76
2023/12/08 11:58:06;;;;;;;;;15.75;10.75;;;;;;;;5053314;28;9919;-77
2023/12/08 12:00:37;;;;;;;;;11.50;7.00;;;;;;;;5050180;28;9803;-76
2023/12/08 12:03:11;;;;;;;;;19.00;9.00;;;;;;;;5054267;28;10299;-76
2023/12/08 12:05:39;;;;;;;;;12.75;9.50;;;;;;;;5054200;28;9786;-74
2023/12/08 12:08:07;;;;;;;;;11.00;8.25;;;;;;;;5052882;28;9693;-75
2023/12/08 12:10:35;;;;;;;;;12.25;8.00;;;;;;;;5053757;28;9728;-76
2023/12/08 12:13:04;;;;;;;;;11.00;9.00;;;;;;;;5053097;28;9813;-77
2023/12/08 12:15:33;;;;;;;;;3.00;3.00;;;;;;;;5053262;28;9618;-75
2023/12/08 12:18:03;;;;;;;;;15.00;8.00;;;;;;;;5051402;28;9628;-75
2023/12/08 12:20:34;;;;;;;;;5.00;5.00;;;;;;;;5050595;28;10427;-77
2023/12/08 12:23:11;;;;;;;;;6.00;6.00;;;;;;;;5050396;28;9800;-77
2023/12/08 12:25:38;;;;;;;;;13.00;7.50;;;;;;;;5050341;28;9824;-73
2023/12/08 12:28:05;;;;;;;;;13.75;8.75;;;;;;;;5049180;28;9781;-77
2023/12/08 12:30:32;;;;;;;;;8.50;8.50;;;;;;;;5049761;28;10394;-77
2023/12/08 12:33:07;;;;;;;;;10.00;9.25;;;;;;;;5050307;28;9802;-74
2023/12/08 12:35:34;;;;;;;;;7.75;7.50;;;;;;;;5040851;28;9859;-77
2023/12/08 12:38:03;;;;;;;;;13.00;10.25;;;;;;;;5049645;28;9693;-79
2023/12/08 12:40:30;;;;;;;;;11.25;6.25;;;;;;;;5050698;28;9716;-78
2023/12/08 12:43:01;;;;;;;;;10.50;6.00;;;;;;;;5051812;28;9704;-75
2023/12/08 12:45:31;;;;;;;;;13.50;9.50;;;;;;;;5053793;28;9539;-78
2023/12/08 12:48:04;;;;;;;;;8.75;8.75;;;;;;;;5048897;28;9899;-77
2023/12/08 12:50:33;;;;;;;;;7.25;7.25;;;;;;;;5049658;28;9612;-74
2023/12/08 12:53:06;;;;;;;;;10.75;4.75;;;;;;;;5049416;28;9680;-78
2023/12/08 12:55:33;;;;;;;;;8.75;5.50;;;;;;;;5049313;28;9675;-78
2023/12/08 12:58:02;;;;;;;;;10.50;10.50;;;;;;;;5049338;28;9646;-79
2023/12/08 13:00:34;;;;;;;;;9.75;7.00;;;;;;;;5049096;28;9416;-76
2023/12/08 13:03:11;;;;;;;;;8.00;7.50;;;;;;;;5049656;28;9639;-72
2023/12/08 13:05:50;;;;;;;;;13.00;9.00;;;;;;;;5049115;28;9390;-79
2023/12/08 13:08:18;;;;;;;;;7.00;5.00;;;;;;;;5049832;28;9485;-75
2023/12/08 13:10:46;;;;;;;;;6.67;6.67;;;;;;;;5049193;28;9329;-78
2023/12/08 13:13:13;;;;;;;;;6.67;5.33;;;;;;;;5049456;28;9319;-80
2023/12/08 13:15:41;;;;;;;;;9.67;4.00;;;;;;;;5049870;28;9191;-81
2023/12/08 13:18:08;;;;;;;;;9.33;8.67;;;;;;;;5049446;28;10023;-77
2023/12/08 13:20:36;;;;;;;;;7.67;6.00;;;;;;;;5044916;28;9467;-82
2023/12/08 13:23:04;;;;;;;;;9.67;6.00;;;;;;;;5044315;28;9465;-79
2023/12/08 13:25:32;;;;;;;;;5.00;4.33;;;;;;;;5050091;28;9255;-78
2023/12/08 13:28:02;;;;;;;;;8.33;6.00;;;;;;;;5049009;28;9281;-78
2023/12/08 13:30:29;;;;;;;;;9.33;5.00;;;;;;;;5049157;28;9244;-85
2023/12/08 13:32:59;;;;;;;;;9.67;7.00;;;;;;;;5049180;28;9322;-79
2023/12/08 13:35:26;;;;;;;;;6.00;4.00;;;;;;;;5050007;28;9194;-80
2023/12/08 13:37:53;;;;;;;;;4.33;4.00;;;;;;;;5050036;28;9219;-78
2023/12/08 13:40:25;;;;;;;;;8.00;7.00;;;;;;;;5042211;28;9282;-79
2023/12/08 13:42:53;;;;;;;;;6.00;6.00;;;;;;;;5049945;28;9202;-77
2023/12/08 13:45:20;;;;;;;;;4.00;4.00;;;;;;;;5051740;28;9322;-78
2023/12/08 13:47:47;;;;;;;;;6.00;6.00;;;;;;;;5052142;28;9259;-75
2023/12/08 13:50:14;;;;;;;;;10.33;4.00;;;;;;;;5053396;28;9337;-77
2023/12/08 13:52:41;;;;;;;;;4.67;3.00;;;;;;;;5053980;28;9228;-79
2023/12/08 13:55:09;;;;;;;;;8.00;5.00;;;;;;;;5052648;28;9228;-74
2023/12/08 13:57:38;;;;;;;;;10.33;7.67;;;;;;;;5049337;28;9449;-74
2023/12/08 14:00:07;;;;;;;;;7.67;5.00;;;;;;;;5048055;28;9328;-73
2023/12/08 14:02:34;;;;;;;;;8.67;7.00;;;;;;;;5049845;28;9413;-76
2023/12/08 14:05:08;;;;;;;;;5.00;5.00;;;;;;;;5050060;28;9160;-73
2023/12/08 14:07:35;;;;;;;;;13.00;6.00;;;;;;;;5048340;28;9306;-73
2023/12/08 14:10:02;;;;;;;;;9.00;7.00;;;;;;;;5047709;28;9273;-79
2023/12/08 14:12:32;;;;;;;;;4.00;4.00;;;;;;;;5048066;28;9161;-75
2023/12/08 14:15:06;;;;;;;;;8.33;5.67;;;;;;;;5047034;28;9200;-77
2023/12/08 14:17:34;;;;;;;;;11.67;8.33;;;;;;;;5048636;28;9235;-72
2023/12/08 14:20:01;;;;;;;;;21.50;17.25;;;;;;;;5048118;28;9239;-74
2023/12/08 14:22:31;;;;;;;;;7.00;5.00;;;;;;;;5047775;28;9470;-78
2023/12/08 14:25:00;;;;;;;;;4.67;4.67;;;;;;;;5048057;28;9062;-77
2023/12/08 14:27:27;;;;;;;;;5.00;3.00;;;;;;;;5048945;28;9006;-77
2023/12/08 14:29:56;;;;;;;;;6.00;6.00;;;;;;;;5047829;28;8954;-75